Time;durP1;ratioP1;P1;durP2;ratioP2;P2;SDS_P1;SDS_P2;PMS_P1;PMS_P2;Temp;Humidity;BMP_temperature;BMP_pressure;BME280_temperature;BME280_humidity;BME280_pressure;Samples;Min_cycle;Max_cycle;Signal;HPM_P1;HPM_P2
2022/09/28 00:01:37;;;;;;;;;;;;;;;10.68;100.00;96621.89;1708315;82;22082;-86
2022/09/28 00:04:05;;;;;;;;;;;;;;;10.56;100.00;96616.56;1711799;83;26038;-86
2022/09/28 00:06:31;;;;;;;;;;;;;;;10.46;100.00;96619.27;1713510;82;25250;-86
2022/09/28 00:08:58;;;;;;;;;;;;;;;10.39;100.00;96626.55;1735366;80;20227;-86
2022/09/28 00:11:32;;;;;;;;;;;;;;;10.29;100.00;96622.71;1726737;81;24921;-86
2022/09/28 00:14:06;;;;;;;;;;;;;;;10.23;100.00;96623.30;1726780;81;22687;-86
2022/09/28 00:16:34;;;;;;;;;;;;;;;10.21;100.00;96616.08;1704944;82;26154;-86
2022/09/28 00:19:01;;;;;;;;;;;;;;;10.20;100.00;96620.17;1725801;82;25081;-86
2022/09/28 00:21:29;;;;;;;;;;;;;;;10.17;100.00;96617.36;1697780;82;20206;-86
2022/09/28 00:24:14;;;;;;;;;;;;;;;10.16;100.00;96620.94;1703216;82;24921;-86
2022/09/28 00:26:48;;;;;;;;;;;;;;;10.16;100.00;96615.71;1704762;82;22024;-86
2022/09/28 00:29:15;;;;;;;;;;;;;;;10.13;100.00;96614.69;1727202;82;26040;-86
2022/09/28 00:31:41;;;;;;;;;;;;;;;10.16;100.00;96613.09;1701275;82;24606;-86
2022/09/28 00:34:14;;;;;;;;;;;;;;;10.17;100.00;96611.31;1727140;81;21035;-86
2022/09/28 00:36:46;;;;;;;;;;;;;;;10.18;100.00;96616.87;1728585;81;25339;-86
2022/09/28 00:39:14;;;;;;;;;;;;;;;10.21;100.00;96613.95;1692641;82;21963;-86
2022/09/28 00:41:42;;;;;;;;;;;;;;;10.25;100.00;96610.09;1721399;81;39926;-86
2022/09/28 00:44:23;;;;;;;;;;;;;;;10.23;100.00;96611.54;1728587;81;24554;-86
2022/09/28 00:47:00;;;;;;;;;;;;;;;10.24;100.00;96614.98;1703058;83;20495;-86
2022/09/28 00:49:39;;;;;;;;;;;;;;;10.21;100.00;96618.70;1702498;82;24743;-86
2022/09/28 00:52:09;;;;;;;;;;;;;;;10.19;100.00;96613.30;1726939;82;22112;-86
2022/09/28 00:54:40;;;;;;;;;;;;;;;10.16;100.00;96613.09;1724385;81;26077;-86
2022/09/28 00:57:16;;;;;;;;;;;;;;;10.11;100.00;96612.69;1723660;81;24638;-86
2022/09/28 00:59:42;;;;;;;;;;;;;;;10.12;100.00;96606.98;1700484;82;20251;-86
2022/09/28 01:02:09;;;;;;;;;;;;;;;10.13;100.00;96603.41;1702782;82;24780;-85
2022/09/28 01:04:36;;;;;;;;;;;;;;;10.13;100.00;96605.53;1723009;80;22142;-85
2022/09/28 01:07:07;;;;;;;;;;;;;;;10.11;100.00;96609.25;1700252;82;26713;-85
2022/09/28 01:09:37;;;;;;;;;;;;;;;10.08;100.00;96617.75;1722240;81;24505;-85
2022/09/28 01:12:05;;;;;;;;;;;;;;;10.03;100.00;96618.68;1718018;81;20319;-85
2022/09/28 01:14:39;;;;;;;;;;;;;;;10.02;100.00;96622.25;1717052;81;25771;-86
2022/09/28 01:17:07;;;;;;;;;;;;;;;10.03;100.00;96623.91;1718425;81;22079;-86
2022/09/28 01:19:47;;;;;;;;;;;;;;;10.02;100.00;96624.05;1715754;81;25993;-86
2022/09/28 01:22:34;;;;;;;;;;;;;;;9.97;100.00;96614.05;1716632;82;24434;-86
2022/09/28 01:25:18;;;;;;;;;;;;;;;9.95;100.00;96617.75;1667032;83;20438;-86
2022/09/28 01:27:46;;;;;;;;;;;;;;;9.95;100.00;96620.37;1660298;84;24772;-85
2022/09/28 01:30:24;;;;;;;;;;;;;;;9.92;100.00;96614.97;1663161;83;22719;-84
2022/09/28 01:32:57;;;;;;;;;;;;;;;9.90;100.00;96622.13;1659833;84;25982;-85
2022/09/28 01:35:38;;;;;;;;;;;;;;;9.85;100.00;96621.74;1663899;84;24489;-85
2022/09/28 01:38:08;;;;;;;;;;;;;;;9.86;100.00;96613.42;1674751;84;20239;-85
2022/09/28 01:40:35;;;;;;;;;;;;;;;9.85;100.00;96613.08;1660730;83;25604;-85
2022/09/28 01:43:03;;;;;;;;;;;;;;;9.82;100.00;96609.47;1670807;81;21991;-85
2022/09/28 01:45:31;;;;;;;;;;;;;;;9.83;100.00;96613.22;1700042;82;26102;-85
2022/09/28 01:47:58;;;;;;;;;;;;;;;9.82;100.00;96609.47;1704446;82;24411;-85
2022/09/28 01:50:26;;;;;;;;;;;;;;;9.78;100.00;96606.79;1732121;81;20242;-85
2022/09/28 01:52:54;;;;;;;;;;;;;;;9.74;100.00;96608.06;1735608;82;24981;-85
2022/09/28 01:55:31;;;;;;;;;;;;;;;9.70;100.00;96606.72;1723351;81;22079;-85
2022/09/28 01:57:59;;;;;;;;;;;;;;;9.66;100.00;96602.25;1722811;81;26041;-85
2022/09/28 02:00:25;;;;;;;;;;;;;;;9.60;100.00;96607.57;1719758;81;24615;-85
2022/09/28 02:03:15;;;;;;;;;;;;;;;9.56;100.00;96602.31;1682948;83;20817;-85
2022/09/28 02:05:43;;;;;;;;;;;;;;;9.53;100.00;96609.14;1729217;82;24818;-85
2022/09/28 02:08:11;;;;;;;;;;;;;;;9.46;100.00;96609.85;1723716;82;21948;-85
2022/09/28 02:10:47;;;;;;;;;;;;;;;9.46;100.00;96610.68;1711055;82;25984;-85
2022/09/28 02:13:19;;;;;;;;;;;;;;;9.42;100.00;96610.64;1711081;83;24501;-84
2022/09/28 02:15:49;;;;;;;;;;;;;;;9.43;100.00;96605.77;1711904;82;20233;-85
2022/09/28 02:18:16;;;;;;;;;;;;;;;9.41;100.00;96605.07;1709440;82;24746;-85
2022/09/28 02:20:44;;;;;;;;;;;;;;;9.38;100.00;96610.56;1710776;82;22101;-85
2022/09/28 02:23:10;;;;;;;;;;;;;;;9.39;100.00;96606.99;1710213;83;26141;-85
2022/09/28 02:25:48;;;;;;;;;;;;;;;9.39;100.00;96612.22;1692892;83;20663;-85
2022/09/28 02:28:17;;;;;;;;;;;;;;;9.40;100.00;96610.43;1710202;83;20228;-85
2022/09/28 02:30:52;;;;;;;;;;;;;;;9.37;100.00;96618.08;1712071;82;24920;-84
2022/09/28 02:33:23;;;;;;;;;;;;;;;9.36;100.00;96620.34;1709926;83;22058;-85
2022/09/28 02:35:50;;;;;;;;;;;;;;;9.34;100.00;96626.19;1707109;82;26104;-85
2022/09/28 02:38:19;;;;;;;;;;;;;;;9.31;100.00;96621.27;1708749;82;24649;-85
2022/09/28 02:40:46;;;;;;;;;;;;;;;9.30;100.00;96610.95;1710660;82;20148;-85
2022/09/28 02:43:14;;;;;;;;;;;;;;;9.30;100.00;96614.39;1712134;82;24842;-85
2022/09/28 02:45:42;;;;;;;;;;;;;;;9.27;100.00;96610.78;1711646;83;22636;-84
2022/09/28 02:48:21;;;;;;;;;;;;;;;9.28;100.00;96608.96;1695169;83;21397;-84
2022/09/28 02:51:05;;;;;;;;;;;;;;;9.28;100.00;96608.48;1713132;82;25389;-86
2022/09/28 02:53:33;;;;;;;;;;;;;;;9.24;100.00;96611.05;1709950;82;20240;-85
2022/09/28 02:56:18;;;;;;;;;;;;;;;9.25;100.00;96615.31;1698571;82;24857;-86
2022/09/28 02:59:05;;;;;;;;;;;;;;;9.25;100.00;96614.00;1709038;82;20147;-85
2022/09/28 03:01:35;;;;;;;;;;;;;;;9.29;100.00;96610.13;1709373;82;25990;-84
2022/09/28 03:04:21;;;;;;;;;;;;;;;9.31;100.00;96615.22;1709504;82;24443;-85
2022/09/28 03:06:49;;;;;;;;;;;;;;;9.31;100.00;96623.87;1715494;82;20316;-85
2022/09/28 03:09:20;;;;;;;;;;;;;;;9.32;100.00;96620.30;1714464;82;24985;-85
2022/09/28 03:11:47;;;;;;;;;;;;;;;9.31;100.00;96619.96;1726045;81;21954;-85
2022/09/28 03:14:14;;;;;;;;;;;;;;;9.25;100.00;96614.00;1736574;81;26949;-85
2022/09/28 03:16:43;;;;;;;;;;;;;;;9.27;100.00;96613.39;1707151;82;25320;-84
2022/09/28 03:19:12;;;;;;;;;;;;;;;9.24;100.00;96614.48;1697181;83;20204;-84
2022/09/28 03:21:44;;;;;;;;;;;;;;;9.27;100.00;96613.87;1703698;83;24389;-85
2022/09/28 03:24:10;;;;;;;;;;;;;;;9.26;100.00;96615.66;1702918;83;22087;-85
2022/09/28 03:26:38;;;;;;;;;;;;;;;9.22;100.00;96614.27;1729679;81;21757;-85
2022/09/28 03:29:04;;;;;;;;;;;;;;;9.21;100.00;96622.61;1730494;81;24586;-84
2022/09/28 03:31:31;;;;;;;;;;;;;;;9.22;100.00;96624.71;1734758;81;20251;-85
2022/09/28 03:33:58;;;;;;;;;;;;;;;9.23;100.00;96623.75;1726228;81;24761;-85
2022/09/28 03:36:24;;;;;;;;;;;;;;;9.24;100.00;96624.09;1724000;81;22194;-85
2022/09/28 03:38:55;;;;;;;;;;;;;;;9.24;100.00;96621.48;1721462;82;26189;-85
2022/09/28 03:41:23;;;;;;;;;;;;;;;9.27;100.00;96630.83;1721361;82;24597;-85
2022/09/28 03:43:52;;;;;;;;;;;;;;;9.28;100.00;96628.06;1723920;81;20460;-85
2022/09/28 03:46:31;;;;;;;;;;;;;;;9.28;100.00;96633.76;1729235;82;24804;-85
2022/09/28 03:49:00;;;;;;;;;;;;;;;9.26;100.00;96626.09;1720983;82;21996;-85
2022/09/28 03:51:26;;;;;;;;;;;;;;;9.27;100.00;96627.75;1723922;82;25718;-85
2022/09/28 03:53:55;;;;;;;;;;;;;;;9.29;100.00;96636.23;1725678;82;20829;-85
2022/09/28 03:56:21;;;;;;;;;;;;;;;9.31;100.00;96634.80;1723068;82;20246;-85
2022/09/28 03:58:47;;;;;;;;;;;;;;;9.31;100.00;96633.02;1730809;81;24699;-85
2022/09/28 04:01:14;;;;;;;;;;;;;;;9.30;100.00;96637.89;1723046;82;21807;-85
2022/09/28 04:03:44;;;;;;;;;;;;;;;9.31;100.00;96630.40;1725261;82;26036;-86
2022/09/28 04:06:10;;;;;;;;;;;;;;;9.34;100.00;96629.27;1723962;82;24512;-85
2022/09/28 04:08:39;;;;;;;;;;;;;;;9.33;100.00;96638.89;1724578;82;20493;-86
2022/09/28 04:11:08;;;;;;;;;;;;;;;9.33;100.00;96631.06;1723556;81;24826;-86
2022/09/28 04:13:38;;;;;;;;;;;;;;;9.37;100.00;96628.52;1726374;82;22004;-85
2022/09/28 04:16:04;;;;;;;;;;;;;;;9.38;100.00;96627.53;1714130;82;26004;-85
2022/09/28 04:18:41;;;;;;;;;;;;;;;9.41;100.00;96622.52;1736855;80;24593;-85
2022/09/28 04:21:09;;;;;;;;;;;;;;;9.41;100.00;96622.04;1725930;81;20213;-85
2022/09/28 04:23:35;;;;;;;;;;;;;;;9.46;100.00;96616.37;1690891;83;24786;-85
2022/09/28 04:26:07;;;;;;;;;;;;;;;9.45;100.00;96612.95;1687631;82;22080;-85
2022/09/28 04:31:17;;;;;;;;;;;;;;;9.36;100.00;96615.13;1712644;81;24675;-84
2022/09/28 04:33:43;;;;;;;;;;;;;;;9.37;100.00;96614.65;1729476;80;20216;-84
2022/09/28 04:36:10;;;;;;;;;;;;;;;9.39;100.00;96611.39;1731307;82;24810;-85
2022/09/28 04:38:38;;;;;;;;;;;;;;;9.42;100.00;96612.42;1690721;82;22702;-85
2022/09/28 04:41:04;;;;;;;;;;;;;;;9.43;100.00;96612.29;1734604;81;25984;-84
2022/09/28 04:43:33;;;;;;;;;;;;;;;9.40;100.00;96613.86;1736130;80;24294;-85
2022/09/28 04:46:05;;;;;;;;;;;;;;;9.32;100.00;96615.56;1731348;80;20169;-85
2022/09/28 04:48:31;;;;;;;;;;;;;;;9.29;100.00;96627.58;1695748;82;24616;-85
2022/09/28 04:50:59;;;;;;;;;;;;;;;9.30;100.00;96620.09;1720388;82;21994;-85
2022/09/28 04:53:26;;;;;;;;;;;;;;;9.28;100.00;96620.23;1719946;82;26029;-85
2022/09/28 04:55:57;;;;;;;;;;;;;;;9.26;100.00;96622.18;1725493;82;25218;-85
2022/09/28 04:58:23;;;;;;;;;;;;;;;9.29;100.00;96620.58;1723108;82;20468;-85
2022/09/28 05:00:50;;;;;;;;;;;;;;;9.30;100.00;96626.63;1723389;82;25614;-85
2022/09/28 05:03:17;;;;;;;;;;;;;;;9.22;100.00;96624.71;1715119;82;22731;-84
2022/09/28 05:05:43;;;;;;;;;;;;;;;9.20;100.00;96622.27;1715012;82;21120;-85
2022/09/28 05:08:10;;;;;;;;;;;;;;;9.20;100.00;96627.48;1754027;80;24394;-85
2022/09/28 05:10:40;;;;;;;;;;;;;;;9.17;100.00;96628.23;1745719;80;20798;-85
2022/09/28 05:13:07;;;;;;;;;;;;;;;9.13;100.00;96625.58;1691113;82;25020;-85
2022/09/28 05:15:40;;;;;;;;;;;;;;;9.16;100.00;96625.31;1700175;82;22751;-84
2022/09/28 05:18:08;;;;;;;;;;;;;;;9.16;100.00;96627.41;1699475;82;26218;-84
2022/09/28 05:20:35;;;;;;;;;;;;;;;9.17;100.00;96629.06;1696038;83;24435;-84
2022/09/28 05:23:01;;;;;;;;;;;;;;;9.17;100.00;96634.28;1673258;83;20225;-85
2022/09/28 05:25:28;;;;;;;;;;;;;;;9.18;100.00;96637.72;1696404;82;24885;-84
2022/09/28 05:27:57;;;;;;;;;;;;;;;9.17;100.00;96638.67;1696016;82;20807;-85
2022/09/28 05:30:24;;;;;;;;;;;;;;;9.19;100.00;96643.28;1670217;83;25910;-85
2022/09/28 05:32:53;;;;;;;;;;;;;;;9.18;100.00;96635.10;1673251;83;24485;-84
2022/09/28 05:35:19;;;;;;;;;;;;;;;9.14;100.00;96633.27;1675753;83;20242;-85
2022/09/28 05:37:53;;;;;;;;;;;;;;;9.16;100.00;96629.23;1700502;82;20791;-85
2022/09/28 05:40:19;;;;;;;;;;;;;;;9.18;100.00;96629.89;1706064;82;22058;-84
2022/09/28 05:42:51;;;;;;;;;;;;;;;9.18;100.00;96622.88;1717202;82;21804;-84
2022/09/28 05:45:18;;;;;;;;;;;;;;;9.19;100.00;96625.84;1719862;82;24546;-84
2022/09/28 05:47:47;;;;;;;;;;;;;;;9.18;100.00;96618.97;1700410;82;21086;-84
2022/09/28 05:50:16;;;;;;;;;;;;;;;9.16;100.00;96625.31;1688946;83;24745;-84
2022/09/28 05:52:43;;;;;;;;;;;;;;;9.15;100.00;96626.27;1685178;83;22150;-84
2022/09/28 05:55:12;;;;;;;;;;;;;;;9.15;100.00;96634.92;1683844;83;26053;-85
2022/09/28 05:57:38;;;;;;;;;;;;;;;9.16;100.00;96634.45;1684447;83;24519;-85
2022/09/28 06:00:06;;;;;;;;;;;;;;;9.14;100.00;96635.88;1682272;83;20323;-85
2022/09/28 06:02:32;;;;;;;;;;;;;;;9.12;100.00;96633.06;1682225;83;25440;-85
2022/09/28 06:05:01;;;;;;;;;;;;;;;9.12;100.00;96640.41;1687288;83;20268;-85
2022/09/28 06:07:28;;;;;;;;;;;;;;;9.15;100.00;96638.02;1654691;84;26097;-85
2022/09/28 06:09:54;;;;;;;;;;;;;;;9.16;100.00;96641.77;1697533;82;20244;-84
2022/09/28 06:12:20;;;;;;;;;;;;;;;9.20;100.00;96634.02;1717141;82;20391;-84
2022/09/28 06:14:46;;;;;;;;;;;;;;;9.24;100.00;96638.45;1715069;82;25377;-84
2022/09/28 06:17:11;;;;;;;;;;;;;;;9.24;100.00;96638.45;1721997;82;20313;-85
2022/09/28 06:19:38;;;;;;;;;;;;;;;9.26;100.00;96635.23;1718595;82;20963;-85
2022/09/28 06:22:04;;;;;;;;;;;;;;;9.29;100.00;96637.54;1733995;81;24554;-85
2022/09/28 06:24:30;;;;;;;;;;;;;;;9.32;100.00;96624.70;1740410;81;20800;-85
2022/09/28 06:26:56;;;;;;;;;;;;;;;9.36;100.00;96628.66;1718870;82;20218;-85
2022/09/28 06:29:28;;;;;;;;;;;;;;;9.40;100.00;96625.61;1743927;80;20409;-84
2022/09/28 06:31:55;;;;;;;;;;;;;;;9.42;100.00;96618.95;1716684;82;26002;-85
2022/09/28 06:34:21;;;;;;;;;;;;;;;9.49;100.00;96616.91;1743647;81;20394;-85
2022/09/28 06:36:47;;;;;;;;;;;;;;;9.54;100.00;96612.58;1734047;81;20309;-84
2022/09/28 06:39:13;;;;;;;;;;;;;;;9.57;100.00;96615.71;1724830;82;20712;-84
2022/09/28 06:41:39;;;;;;;;;;;;;;;9.61;100.00;96622.28;1734088;82;20236;-85
2022/09/28 06:44:06;;;;;;;;;;;;;;;9.63;100.00;96605.99;1741542;81;21338;-85
2022/09/28 06:46:32;;;;;;;;;;;;;;;9.70;100.00;96606.72;1732770;82;20313;-85
2022/09/28 06:48:58;;;;;;;;;;;;;;;9.72;100.00;96602.15;1726302;82;20331;-85
2022/09/28 06:51:24;;;;;;;;;;;;;;;9.74;100.00;96610.19;1729558;82;20772;-86
2022/09/28 06:53:52;;;;;;;;;;;;;;;9.80;100.00;96606.17;1728556;82;20982;-86
2022/09/28 06:56:27;;;;;;;;;;;;;;;9.85;100.00;96602.15;1725245;82;25570;-85
2022/09/28 06:58:53;;;;;;;;;;;;;;;9.88;100.00;96601.02;1722376;82;24407;-85
2022/09/28 07:01:19;;;;;;;;;;;;;;;9.97;100.00;96602.77;1726832;82;20305;-85
2022/09/28 07:03:45;;;;;;;;;;;;;;;10.02;100.00;96607.06;1721296;82;24737;-85
2022/09/28 07:06:11;;;;;;;;;;;;;;;10.11;100.00;96609.25;1721641;82;20265;-85
2022/09/28 07:08:37;;;;;;;;;;;;;;;10.14;100.00;96608.48;1719057;82;26148;-85
2022/09/28 07:11:09;;;;;;;;;;;;;;;10.21;100.00;96614.78;1723789;82;24511;-85
2022/09/28 07:13:39;;;;;;;;;;;;;;;10.30;100.00;96620.44;1725682;82;20224;-85
2022/09/28 07:16:05;;;;;;;;;;;;;;;10.39;100.00;96618.22;1720139;82;25632;-85
2022/09/28 07:18:31;;;;;;;;;;;;;;;10.49;100.00;96620.27;1725862;82;22012;-85
2022/09/28 07:21:01;;;;;;;;;;;;;;;10.57;100.00;96623.92;1728836;82;21331;-85
2022/09/28 07:23:28;;;;;;;;;;;;;;;10.64;100.00;96622.33;1702515;82;24602;-85
2022/09/28 07:25:58;;;;;;;;;;;;;;;10.69;100.00;96626.64;1717689;82;20163;-85
2022/09/28 07:28:22;;;;;;;;;;;;;;;10.72;100.00;96626.33;1715156;82;24786;-85
2022/09/28 07:30:48;;;;;;;;;;;;;;;10.73;100.00;96621.44;1721266;82;20321;-85
2022/09/28 07:33:21;;;;;;;;;;;;;;;10.83;100.00;96628.70;1720502;81;26301;-86
2022/09/28 07:35:51;;;;;;;;;;;;;;;10.94;100.00;96623.70;1719679;82;24428;-86
2022/09/28 07:38:19;;;;;;;;;;;;;;;10.99;100.00;96622.75;1722107;81;20290;-85
2022/09/28 07:43:29;;;;;;;;;;;;;;;11.17;100.00;96603.89;1712563;82;22201;-86
2022/09/28 07:45:55;;;;;;;;;;;;;;;11.23;100.00;96604.58;1728860;81;21755;-85
2022/09/28 07:48:22;;;;;;;;;;;;;;;11.26;100.00;96599.02;1732182;80;20305;-85
2022/09/28 07:50:52;;;;;;;;;;;;;;;11.24;100.00;96598.34;1721783;80;20612;-86
2022/09/28 07:53:19;;;;;;;;;;;;;;;11.25;100.00;96595.58;1735411;80;24938;-86
2022/09/28 07:55:49;;;;;;;;;;;;;;;11.31;100.00;96589.72;1704904;83;22039;-85
2022/09/28 07:58:15;;;;;;;;;;;;;;;11.34;100.00;96588.59;1700109;83;27074;-86
2022/09/28 08:00:46;;;;;;;;;;;;;;;11.36;100.00;96581.39;1704518;82;20839;-86
2022/09/28 08:03:09;;;;;;;;;;;;;;;11.39;100.00;96583.70;1738104;80;20388;-85
2022/09/28 08:05:34;;;;;;;;;;;;;;;11.45;100.00;96577.02;1702995;82;20356;-85
2022/09/28 08:08:01;;;;;;;;;;;;;;;11.53;100.00;96570.00;1734032;80;20315;-85
2022/09/28 08:10:27;;;;;;;;;;;;;;;11.62;100.00;96573.45;1726555;81;26586;-86
2022/09/28 08:12:54;;;;;;;;;;;;;;;11.71;100.00;96573.34;1732921;81;20222;-85
2022/09/28 08:15:21;;;;;;;;;;;;;;;11.78;100.00;96577.50;1728429;81;20251;-85
2022/09/28 08:17:57;;;;;;;;;;;;;;;11.88;100.00;96579.97;1725980;81;24767;-85
2022/09/28 08:22:53;;;;;;;;;;;;;;;12.11;100.00;96577.04;1653675;84;26007;-85
2022/09/28 08:25:19;;;;;;;;;;;;;;;12.16;100.00;96587.37;1707400;81;20311;-86
2022/09/28 08:27:45;;;;;;;;;;;;;;;12.24;100.00;96583.12;1732365;81;20184;-85
2022/09/28 08:30:13;;;;;;;;;;;;;;;12.28;100.00;96589.19;1724010;81;20257;-85
2022/09/28 08:32:41;;;;;;;;;;;;;;;12.35;100.00;96588.05;1688273;83;21983;-85
2022/09/28 08:35:07;;;;;;;;;;;;;;;12.48;100.00;96593.16;1719604;81;26092;-85
2022/09/28 08:37:35;;;;;;;;;;;;;;;12.58;100.00;96596.92;1722464;81;20958;-85
2022/09/28 08:40:03;;;;;;;;;;;;;;;12.61;100.00;96586.58;1733568;80;20277;-85
2022/09/28 08:42:30;;;;;;;;;;;;;;;12.58;100.00;96588.56;1734115;80;25685;-85
2022/09/28 08:44:58;;;;;;;;;;;;;;;12.59;100.00;96589.38;1698853;83;22250;-86
2022/09/28 08:50:13;;;;;;;;;;;;;;;12.63;100.00;96585.93;1713196;82;24475;-85
2022/09/28 08:52:39;;;;;;;;;;;;;;;12.64;100.00;96590.20;1707871;82;20333;-85
2022/09/28 08:55:07;;;;;;;;;;;;;;;12.61;100.00;96586.08;1709879;82;24703;-85
2022/09/28 08:57:35;;;;;;;;;;;;;;;12.57;100.00;96582.16;1710400;83;22278;-85
2022/09/28 09:00:01;;;;;;;;;;;;;;;12.51;100.00;96585.44;1713013;82;26888;-85
2022/09/28 09:02:32;;;;;;;;;;;;;;;12.51;100.00;96581.50;1713297;83;24450;-85
2022/09/28 09:05:05;;;;;;;;;;;;;;;12.54;100.00;96578.56;1715212;82;20545;-85
2022/09/28 09:07:36;;;;;;;;;;;;;;;12.53;100.00;96572.98;1711618;82;25631;-85
2022/09/28 09:10:04;;;;;;;;;;;;;;;12.53;100.00;96571.67;1710688;82;21962;-85
2022/09/28 09:15:29;;;;;;;;;;;;;;;12.65;100.00;96575.61;1703105;83;21464;-85
2022/09/28 09:18:14;;;;;;;;;;;;;;;12.71;100.00;96578.06;1708478;82;20552;-85
2022/09/28 09:20:51;;;;;;;;;;;;;;;12.74;100.00;96573.29;1731838;80;24817;-85
2022/09/28 09:23:19;;;;;;;;;;;;;;;12.76;100.00;96573.95;1736856;80;22103;-85
2022/09/28 09:25:47;;;;;;;;;;;;;;;12.83;100.00;96568.34;1747530;80;26183;-84
2022/09/28 09:28:37;;;;;;;;;;;;;;;12.90;100.00;96566.70;1746387;80;24537;-85
2022/09/28 09:31:14;;;;;;;;;;;;;;;12.93;100.00;96564.22;1723425;81;20484;-85
2022/09/28 09:33:48;;;;;;;;;;;;;;;13.00;100.00;96569.96;1725763;81;24759;-85
2022/09/28 09:36:22;;;;;;;;;;;;;;;13.06;100.00;96563.22;1724695;82;22793;-85
2022/09/28 09:38:53;;;;;;;;;;;;;;;13.11;100.00;96554.83;1737457;80;26594;-85
2022/09/28 09:41:21;;;;;;;;;;;;;;;13.16;100.00;96556.48;1708595;82;24624;-85
2022/09/28 09:44:07;;;;;;;;;;;;;;;13.24;100.00;96555.98;1690202;82;20203;-85
2022/09/28 09:46:34;;;;;;;;;;;;;;;13.34;100.00;96551.34;1734267;80;24865;-84
2022/09/28 09:49:02;;;;;;;;;;;;;;;13.46;100.00;96553.59;1742099;80;22013;-85
2022/09/28 09:51:42;;;;;;;;;;;;;;;13.51;100.00;96550.78;1747703;80;26275;-85
2022/09/28 09:54:19;;;;;;;;;;;;;;;13.55;100.00;96544.19;1706442;82;24351;-85
2022/09/28 09:56:46;;;;;;;;;;;;;;;13.61;100.00;96544.00;1695196;82;20242;-85
2022/09/28 09:59:15;;;;;;;;;;;;;;;13.66;100.00;96546.92;1735538;80;24264;-84
2022/09/28 10:01:41;;;;;;;;;;;;;;;13.70;100.00;96537.20;1754357;80;22116;-85
2022/09/28 10:04:09;;;;;;;;;;;;;;;13.75;100.00;96546.70;1711608;82;21041;-84
2022/09/28 10:06:36;;;;;;;;;;;;;;;13.82;100.00;96538.45;1713692;82;24447;-84
2022/09/28 10:09:22;;;;;;;;;;;;;;;13.86;100.00;96539.41;1712608;82;20213;-84
2022/09/28 10:11:49;;;;;;;;;;;;;;;13.83;100.00;96546.67;1709441;81;25636;-84
2022/09/28 10:14:23;;;;;;;;;;;;;;;13.84;100.00;96543.55;1756866;80;22191;-85
2022/09/28 10:16:51;;;;;;;;;;;;;;;13.90;100.00;96539.41;1703862;83;26087;-84
2022/09/28 10:19:18;;;;;;;;;;;;;;;13.95;100.00;96541.02;1707703;83;25118;-85
2022/09/28 10:21:45;;;;;;;;;;;;;;;14.01;100.00;96541.64;1704295;83;20211;-84
2022/09/28 10:24:19;;;;;;;;;;;;;;;14.06;100.00;96548.02;1741152;80;24806;-84
2022/09/28 10:26:47;;;;;;;;;;;;;;;14.08;100.00;96544.69;1702318;82;22066;-85
2022/09/28 10:29:18;;;;;;;;;;;;;;;14.15;100.00;96536.43;1708231;82;25981;-85
2022/09/28 10:31:47;;;;;;;;;;;;;;;14.20;100.00;96531.95;1712227;82;24520;-84
2022/09/28 10:34:14;;;;;;;;;;;;;;;14.28;100.00;96525.81;1707660;82;20215;-85
2022/09/28 10:36:54;;;;;;;;;;;;;;;14.35;100.00;96512.25;1736639;80;24816;-84
2022/09/28 10:39:25;;;;;;;;;;;;;;;14.37;100.00;96503.73;1734261;81;21992;-85
2022/09/28 10:41:52;;;;;;;;;;;;;;;14.40;100.00;96500.23;1738064;81;25975;-85
2022/09/28 10:44:19;;;;;;;;;;;;;;;14.43;100.00;96499.07;1730051;81;25127;-84
2022/09/28 10:46:47;;;;;;;;;;;;;;;14.44;100.00;96500.22;1720869;82;20257;-84
2022/09/28 10:49:16;;;;;;;;;;;;;;;14.40;100.00;96492.33;1727540;82;25000;-85
2022/09/28 10:51:48;;;;;;;;;;;;;;;14.45;100.00;96482.61;1729429;82;22044;-85
2022/09/28 10:54:22;;;;;;;;;;;;;;;14.54;100.00;96475.77;1736945;81;25944;-85
2022/09/28 10:56:48;;;;;;;;;;;;;;;14.62;100.00;96466.45;1735407;81;24594;-85
2022/09/28 10:59:25;;;;;;;;;;;;;;;14.68;100.00;96458.84;1725080;81;20230;-85
2022/09/28 11:01:53;;;;;;;;;;;;;;;14.75;100.00;96461.08;1738169;81;24366;-85
2022/09/28 11:04:20;;;;;;;;;;;;;;;14.85;100.00;96463.75;1689919;83;21999;-85
2022/09/28 11:06:46;;;;;;;;;;;;;;;14.94;100.00;96465.81;1710079;81;26203;-85
2022/09/28 11:09:26;;;;;;;;;;;;;;;15.05;100.00;96466.67;1724004;82;20343;-85
2022/09/28 11:11:52;;;;;;;;;;;;;;;15.13;100.00;96468.38;1727875;82;20428;-85
2022/09/28 11:14:28;;;;;;;;;;;;;;;15.14;100.00;96463.42;1725752;82;20583;-85
2022/09/28 11:17:17;;;;;;;;;;;;;;;15.20;100.00;96458.24;1720883;82;22002;-85
2022/09/28 11:19:41;;;;;;;;;;;;;;;15.28;100.00;96451.53;1728561;82;26594;-85
2022/09/28 11:22:19;;;;;;;;;;;;;;;15.36;100.00;96443.53;1729295;82;24417;-85
2022/09/28 11:24:42;;;;;;;;;;;;;;;15.36;100.00;96442.22;1732302;81;20259;-85
2022/09/28 11:27:10;;;;;;;;;;;;;;;15.42;100.00;96453.34;1742106;80;20206;-85
2022/09/28 11:29:45;;;;;;;;;;;;;;;15.46;100.00;96453.27;1739793;81;21967;-85
2022/09/28 11:32:11;;;;;;;;;;;;;;;15.46;100.00;96451.14;1722915;82;26110;-85
2022/09/28 11:34:39;;;;;;;;;;;;;;;15.48;100.00;96449.97;1722516;82;23883;-85
2022/09/28 11:37:22;;;;;;;;;;;;;;;15.54;100.00;96437.07;1748107;81;20166;-85
2022/09/28 11:39:50;;;;;;;;;;;;;;;15.54;100.00;96447.61;1738263;80;24770;-85
2022/09/28 11:42:22;;;;;;;;;;;;;;;15.56;100.00;96448.23;1737763;80;22064;-85
2022/09/28 11:44:48;;;;;;;;;;;;;;;15.65;100.00;96437.40;1739889;80;26725;-85
2022/09/28 11:47:32;;;;;;;;;;;;;;;15.79;100.00;96437.83;1738151;80;24533;-85
2022/09/28 11:50:17;;;;;;;;;;;;;;;15.83;100.00;96435.13;1744702;81;20503;-85
2022/09/28 11:52:48;;;;;;;;;;;;;;;15.94;100.00;96436.44;1740665;81;25526;-85
2022/09/28 11:55:18;;;;;;;;;;;;;;;16.00;100.00;96429.09;1733428;81;22122;-84
2022/09/28 11:57:46;;;;;;;;;;;;;;;16.08;100.00;96434.75;1695766;82;25977;-85
2022/09/28 12:00:17;;;;;;;;;;;;;;;16.12;100.00;96427.58;1726219;82;24470;-85
2022/09/28 12:02:45;;;;;;;;;;;;;;;16.20;100.00;96425.31;1721845;82;20733;-85
2022/09/28 12:05:15;;;;;;;;;;;;;;;16.23;100.00;96423.09;1724910;82;24685;-84
2022/09/28 12:07:45;;;;;;;;;;;;;;;16.21;100.00;96425.10;1720982;82;21929;-85
2022/09/28 12:10:22;;;;;;;;;;;;;;;16.13;100.00;96421.30;1715414;82;26865;-85
2022/09/28 12:12:50;;;;;;;;;;;;;;;16.04;100.00;96427.70;1722716;82;24394;-85
2022/09/28 12:15:27;;;;;;;;;;;;;;;15.93;100.00;96411.59;1725974;82;20224;-85
2022/09/28 12:17:57;;;;;;;;;;;;;;;15.92;100.00;96412.09;1724736;82;24904;-85
2022/09/28 12:20:25;;;;;;;;;;;;;;;15.87;100.00;96419.23;1719060;82;22748;-85
2022/09/28 12:22:52;;;;;;;;;;;;;;;15.86;100.00;96419.44;1725998;82;26699;-85
2022/09/28 12:25:20;;;;;;;;;;;;;;;15.84;100.00;96414.84;1708783;82;24264;-85
2022/09/28 12:27:55;;;;;;;;;;;;;;;15.81;100.00;96419.19;1704986;82;20172;-85
2022/09/28 12:30:20;;;;;;;;;;;;;;;15.82;100.00;96419.48;1735674;81;24826;-85
2022/09/28 12:32:48;;;;;;;;;;;;;;;15.87;100.00;96423.72;1706150;82;21942;-85
2022/09/28 12:35:32;;;;;;;;;;;;;;;15.94;100.00;96424.56;1736423;81;26221;-85
2022/09/28 12:38:00;;;;;;;;;;;;;;;15.97;100.00;96428.16;1736695;80;24743;-84
2022/09/28 12:40:47;;;;;;;;;;;;;;;15.94;100.00;96425.89;1738811;81;20494;-85
2022/09/28 12:43:17;;;;;;;;;;;;;;;15.92;100.00;96421.83;1705444;82;24799;-84
2022/09/28 12:45:56;;;;;;;;;;;;;;;15.85;100.00;96419.12;1710411;80;21987;-85
2022/09/28 12:48:43;;;;;;;;;;;;;;;15.80;100.00;96403.86;1731821;81;26068;-85
2022/09/28 12:51:10;;;;;;;;;;;;;;;15.83;100.00;96402.16;1707279;82;24421;-84
2022/09/28 12:53:55;;;;;;;;;;;;;;;15.85;100.00;96398.84;1736480;81;20220;-84
2022/09/28 12:56:28;;;;;;;;;;;;;;;15.88;100.00;96404.22;1738286;81;24683;-84
2022/09/28 12:59:11;;;;;;;;;;;;;;;15.83;100.00;96407.42;1694110;83;22194;-85
2022/09/28 13:01:48;;;;;;;;;;;;;;;15.70;100.00;96415.73;1717772;82;25986;-84
2022/09/28 13:04:22;;;;;;;;;;;;;;;15.56;100.00;96407.36;1706437;82;25337;-84
2022/09/28 13:06:52;;;;;;;;;;;;;;;15.44;100.00;96416.23;1704871;82;20330;-84
2022/09/28 13:09:30;;;;;;;;;;;;;;;15.32;100.00;96400.61;1734697;80;24829;-84